Lost Nation, Iowa
Current Conditions -  °F | °C
As of 10:55 PM on Monday 22 Dec 2014 (Local Time) from KMXO Reporting Station
Light Rain Light Rain  
Wind Chill: 34°   Ceiling: 400
Heat Index: 39°   Visibility: 5mi
Dew Point: 39°   Wind: 8mph
Humidity: 100%   Direction: 80°E
Pressure: 29.49"   Gusts: NA
Location:  41.96°N, 90.82°W
Report Text: KMXO 230455Z AUTO 08007KT 5SM -RA OVC004 04/04 A2949 RMK AO2 P0003
Loading
Personal Weather Stations






























Interactive Weather Map New forecast layout! Learn more

10-Day Weather Forecast

Advertisements
Track Severe Weather on mobile